createdAt,value
2019-02-20T00:01:31.777Z,6.50
2019-02-20T00:03:57.776Z,6.50
2019-02-20T00:06:23.727Z,6.40
2019-02-20T00:08:49.800Z,6.50
2019-02-20T00:11:15.752Z,6.50
2019-02-20T00:13:41.735Z,6.60
2019-02-20T00:16:07.701Z,6.50
2019-02-20T00:18:33.702Z,6.40
2019-02-20T00:20:59.656Z,6.40
2019-02-20T00:23:25.640Z,6.40
2019-02-20T00:25:51.597Z,6.40
2019-02-20T00:28:17.543Z,6.40
2019-02-20T00:30:44.270Z,6.30
2019-02-20T00:33:10.228Z,6.30
2019-02-20T00:35:36.219Z,6.40
2019-02-20T00:38:02.217Z,6.40
2019-02-20T00:40:28.213Z,6.40
2019-02-20T00:42:54.207Z,6.40
2019-02-20T00:45:20.203Z,6.30
2019-02-20T00:47:46.161Z,6.30
2019-02-20T00:50:12.886Z,6.30
2019-02-20T00:52:38.832Z,6.40
2019-02-20T00:55:04.809Z,6.30
2019-02-20T00:57:30.774Z,6.30
2019-02-20T00:59:56.762Z,6.30
2019-02-20T01:02:22.721Z,6.30
2019-02-20T01:04:48.714Z,6.30
2019-02-20T01:07:15.429Z,6.30
2019-02-20T01:09:41.440Z,6.40
2019-02-20T01:12:07.410Z,6.30
2019-02-20T01:14:34.103Z,6.20
2019-02-20T01:17:00.161Z,6.20
2019-02-20T01:19:26.125Z,6.20
2019-02-20T01:21:52.115Z,6.20
2019-02-20T01:24:18.054Z,6.20
2019-02-20T01:26:44.760Z,6.20
2019-02-20T01:29:10.713Z,6.20
2019-02-20T01:31:37.467Z,6.20
2019-02-20T01:34:04.159Z,6.20
2019-02-20T01:36:30.154Z,6.30
2019-02-20T01:38:56.089Z,6.30
2019-02-20T01:41:22.057Z,6.30
2019-02-20T01:43:48.745Z,6.30
2019-02-20T01:46:14.725Z,6.30
2019-02-20T01:48:41.427Z,6.30
2019-02-20T01:51:07.387Z,6.30
2019-02-20T01:53:34.113Z,6.30
2019-02-20T01:56:00.819Z,6.30
2019-02-20T01:58:26.803Z,6.30
2019-02-20T02:00:52.768Z,6.30
2019-02-20T02:03:18.753Z,6.30
2019-02-20T02:05:44.712Z,6.30
2019-02-20T02:08:10.689Z,6.30
2019-02-20T02:10:36.654Z,6.30
2019-02-20T02:13:02.633Z,6.20
2019-02-20T02:15:28.604Z,6.20
2019-02-20T02:17:54.639Z,6.20
2019-02-20T02:20:20.590Z,6.30
2019-02-20T02:22:47.291Z,6.20
2019-02-20T02:25:13.291Z,6.20
2019-02-20T02:27:39.244Z,6.20
2019-02-20T02:30:05.243Z,6.10
2019-02-20T02:32:31.226Z,6.10
2019-02-20T02:34:57.215Z,6.10
2019-02-20T02:37:23.168Z,6.10
2019-02-20T02:39:49.893Z,6.10
2019-02-20T02:42:16.618Z,6.10
2019-02-20T02:44:42.583Z,6.10
2019-02-20T02:47:08.560Z,6.10
2019-02-20T02:49:34.523Z,6.00
2019-02-20T02:52:00.522Z,6.10
2019-02-20T02:54:26.475Z,6.10
2019-02-20T02:56:52.438Z,6.10
2019-02-20T02:59:18.405Z,6.10
2019-02-20T03:01:45.123Z,6.10
2019-02-20T03:04:11.062Z,6.10
2019-02-20T03:06:37.084Z,6.10
2019-02-20T03:09:03.819Z,6.00
2019-02-20T03:11:30.551Z,6.00
2019-02-20T03:13:56.502Z,6.00
2019-02-20T03:16:23.231Z,6.00
2019-02-20T03:18:49.940Z,6.00
2019-02-20T03:21:15.902Z,6.00
2019-02-20T03:23:41.872Z,6.00
2019-02-20T03:26:07.823Z,6.00
2019-02-20T03:28:33.814Z,6.00
2019-02-20T03:30:59.772Z,6.00
2019-02-20T03:33:26.491Z,6.10
2019-02-20T03:35:52.451Z,6.10
2019-02-20T03:38:29.447Z,6.10
2019-02-20T03:40:44.452Z,6.10
2019-02-20T03:43:10.452Z,6.10
2019-02-20T03:45:36.431Z,6.20
2019-02-20T03:48:02.410Z,6.10
2019-02-20T03:50:28.394Z,6.10
2019-02-20T03:52:55.090Z,6.10
2019-02-20T03:55:21.061Z,6.10
2019-02-20T03:57:47.031Z,6.10
2019-02-20T04:00:13.049Z,6.10
2019-02-20T04:02:39.015Z,6.30
2019-02-20T04:05:05.754Z,6.20
2019-02-20T04:07:32.459Z,6.20
2019-02-20T04:09:58.466Z,6.20
2019-02-20T04:12:24.416Z,6.20
2019-02-20T04:14:50.398Z,6.20
2019-02-20T04:17:16.448Z,6.20
2019-02-20T04:19:42.376Z,6.20
2019-02-20T04:22:08.375Z,6.20
2019-02-20T04:24:34.314Z,6.20
2019-02-20T04:27:00.326Z,6.20
2019-02-20T04:29:26.293Z,6.20
2019-02-20T04:31:53.009Z,6.20
2019-02-20T04:34:18.952Z,6.20
2019-02-20T04:36:44.927Z,6.20
2019-02-20T04:39:10.931Z,6.20
2019-02-20T04:41:36.940Z,6.20
2019-02-20T04:44:03.614Z,6.20
2019-02-20T04:46:29.566Z,6.20
2019-02-20T04:48:55.564Z,6.20
2019-02-20T04:51:21.515Z,6.20
2019-02-20T04:53:47.517Z,6.20
2019-02-20T04:56:13.464Z,6.30
2019-02-20T04:58:39.453Z,6.30
2019-02-20T05:01:05.413Z,6.30
2019-02-20T05:03:31.401Z,6.30
2019-02-20T05:05:57.361Z,6.30
2019-02-20T05:08:24.079Z,6.30
2019-02-20T05:10:50.074Z,6.30
2019-02-20T05:13:16.065Z,6.30
2019-02-20T05:15:42.765Z,6.30
2019-02-20T05:18:08.722Z,6.30
2019-02-20T05:20:35.433Z,6.30
2019-02-20T05:23:01.404Z,6.30
2019-02-20T05:25:27.394Z,6.30
2019-02-20T05:27:54.111Z,6.30
2019-02-20T05:30:20.079Z,6.30
2019-02-20T05:32:46.996Z,6.30
2019-02-20T05:35:12.982Z,6.20
2019-02-20T05:37:39.696Z,6.20
2019-02-20T05:40:05.701Z,6.20
2019-02-20T05:42:31.642Z,6.20
2019-02-20T05:44:57.616Z,6.20
2019-02-20T05:47:23.581Z,6.20
2019-02-20T05:49:49.603Z,6.20
2019-02-20T05:52:15.577Z,6.30
2019-02-20T05:54:41.534Z,6.30
2019-02-20T05:57:08.266Z,6.30
2019-02-20T05:59:34.972Z,6.30
2019-02-20T06:02:01.002Z,6.30
2019-02-20T06:04:26.974Z,6.20
2019-02-20T06:06:53.674Z,6.20
2019-02-20T06:09:19.644Z,6.20
2019-02-20T06:11:45.637Z,6.20
2019-02-20T06:14:11.597Z,6.10
2019-02-20T06:16:37.601Z,6.10
2019-02-20T06:19:04.310Z,6.10
2019-02-20T06:21:30.311Z,6.20
2019-02-20T06:23:56.312Z,6.10
2019-02-20T06:26:22.301Z,6.10
2019-02-20T06:28:49.027Z,6.10
2019-02-20T06:31:15.007Z,6.10
2019-02-20T06:33:41.005Z,6.10
2019-02-20T06:36:06.978Z,6.10
2019-02-20T06:38:32.994Z,6.10
2019-02-20T06:40:58.969Z,6.20
2019-02-20T06:43:24.967Z,6.20
2019-02-20T06:45:50.915Z,6.20
2019-02-20T06:48:17.636Z,6.30
2019-02-20T06:50:43.596Z,6.20
2019-02-20T06:53:09.596Z,6.20
2019-02-20T06:55:36.292Z,6.20
2019-02-20T06:58:02.268Z,6.30
2019-02-20T07:00:28.215Z,6.20
2019-02-20T07:02:54.171Z,6.30
2019-02-20T07:05:20.159Z,6.30
2019-02-20T07:07:46.129Z,6.30
2019-02-20T07:10:12.878Z,6.20
2019-02-20T07:12:39.588Z,6.30
2019-02-20T07:15:05.569Z,6.20
2019-02-20T07:17:31.524Z,6.30
2019-02-20T07:19:57.500Z,6.30
2019-02-20T07:22:23.472Z,6.30
2019-02-20T07:24:49.463Z,6.30
2019-02-20T07:27:15.449Z,6.50
2019-02-20T07:29:42.144Z,6.50
2019-02-20T07:32:08.127Z,6.50
2019-02-20T07:34:34.131Z,6.50
2019-02-20T07:37:00.886Z,6.60
2019-02-20T07:39:27.592Z,6.60
2019-02-20T07:41:53.595Z,6.60
2019-02-20T07:44:19.560Z,6.60
2019-02-20T07:46:46.326Z,6.70
2019-02-20T07:49:12.291Z,6.70
2019-02-20T07:51:38.273Z,6.70
2019-02-20T07:54:04.243Z,6.70
2019-02-20T07:56:30.251Z,6.70
2019-02-20T07:58:56.211Z,6.70
2019-02-20T08:01:22.166Z,6.70
2019-02-20T08:03:48.144Z,6.70
2019-02-20T08:06:14.125Z,6.70
2019-02-20T08:08:40.122Z,6.70
2019-02-20T08:11:06.833Z,6.80
2019-02-20T08:13:39.059Z,6.80
2019-02-20T08:15:58.788Z,6.80
2019-02-20T08:18:24.765Z,6.90
2019-02-20T08:20:50.731Z,6.90
2019-02-20T08:23:17.497Z,7.00
2019-02-20T08:25:43.454Z,7.00
2019-02-20T08:28:09.432Z,7.10
2019-02-20T08:30:36.139Z,7.30
2019-02-20T08:33:02.140Z,7.30
2019-02-20T08:35:28.091Z,7.30
2019-02-20T08:37:54.071Z,7.30
2019-02-20T08:40:20.044Z,7.40
2019-02-20T08:42:46.015Z,7.50
2019-02-20T08:45:12.009Z,7.70
2019-02-20T08:47:38.694Z,7.80
2019-02-20T08:50:04.680Z,7.80
2019-02-20T08:52:31.394Z,8.20
2019-02-20T08:54:57.374Z,8.20
2019-02-20T08:57:23.364Z,8.30
2019-02-20T08:59:51.726Z,8.30
2019-02-20T09:02:16.092Z,8.30
2019-02-20T09:04:42.047Z,8.40
2019-02-20T09:07:08.039Z,8.40
2019-02-20T09:09:34.020Z,8.30
2019-02-20T09:11:59.983Z,8.20
2019-02-20T09:14:25.949Z,8.10
2019-02-20T09:16:51.943Z,8.10
2019-02-20T09:19:17.916Z,8.10
2019-02-20T09:21:43.898Z,8.00
2019-02-20T09:24:10.624Z,8.00
2019-02-20T09:26:36.615Z,8.00
2019-02-20T09:29:02.590Z,8.10
2019-02-20T09:31:29.282Z,8.20
2019-02-20T09:33:56.696Z,8.30
2019-02-20T09:36:21.257Z,8.30
2019-02-20T09:38:47.227Z,8.50
2019-02-20T09:41:13.246Z,8.70
2019-02-20T09:43:39.238Z,8.70
2019-02-20T09:46:05.949Z,8.70
2019-02-20T09:48:31.958Z,8.70
2019-02-20T09:50:57.956Z,8.80
2019-02-20T09:53:23.943Z,8.80
2019-02-20T09:55:51.887Z,8.60
2019-02-20T09:58:15.975Z,8.60
2019-02-20T10:00:41.941Z,8.60
2019-02-20T10:03:07.917Z,8.70
2019-02-20T10:05:33.877Z,8.80
2019-02-20T10:07:59.842Z,8.80
2019-02-20T10:10:25.906Z,8.80
2019-02-20T10:12:52.617Z,8.80
2019-02-20T10:15:18.628Z,8.80
2019-02-20T10:17:44.598Z,8.90
2019-02-20T10:20:11.313Z,9.10
2019-02-20T10:22:37.286Z,9.10
2019-02-20T10:25:03.295Z,9.30
2019-02-20T10:27:29.265Z,9.50
2019-02-20T10:29:55.284Z,10.00
2019-02-20T10:32:21.253Z,10.70
2019-02-20T10:34:47.982Z,11.20
2019-02-20T10:37:14.681Z,11.50
2019-02-20T10:39:40.711Z,11.50
2019-02-20T10:42:06.665Z,11.70
2019-02-20T10:44:32.624Z,12.00
2019-02-20T10:46:58.636Z,12.20
2019-02-20T10:49:24.602Z,12.10
2019-02-20T10:51:50.590Z,11.50
2019-02-20T10:54:16.591Z,11.20
2019-02-20T10:56:43.297Z,11.30
2019-02-20T10:59:09.246Z,11.30
2019-02-20T11:01:36.003Z,11.60
2019-02-20T11:04:02.721Z,11.40
2019-02-20T11:06:29.448Z,11.00
2019-02-20T11:08:55.393Z,11.00
2019-02-20T11:11:21.362Z,10.90
2019-02-20T11:13:47.325Z,10.90
2019-02-20T11:16:13.313Z,10.80
2019-02-20T11:18:39.301Z,10.80
2019-02-20T11:21:05.307Z,10.70
2019-02-20T11:23:32.040Z,10.40
2019-02-20T11:25:58.081Z,10.30
2019-02-20T11:28:26.909Z,10.50
2019-02-20T11:30:50.831Z,10.50
2019-02-20T11:33:17.554Z,11.00
2019-02-20T11:35:43.594Z,10.90
2019-02-20T11:38:09.935Z,11.20
2019-02-20T11:40:36.632Z,11.30
2019-02-20T11:43:02.638Z,11.30
2019-02-20T11:45:28.594Z,11.30
2019-02-20T11:47:54.581Z,11.20
2019-02-20T11:50:20.557Z,11.10
2019-02-20T11:52:46.557Z,11.10
2019-02-20T11:55:12.552Z,11.10
2019-02-20T11:57:38.569Z,11.10
2019-02-20T12:00:04.569Z,11.10
2019-02-20T12:02:37.352Z,11.30
2019-02-20T12:04:56.631Z,11.30
2019-02-20T12:07:22.666Z,11.50
2019-02-20T12:09:48.630Z,11.60
2019-02-20T12:12:14.653Z,11.40
2019-02-20T12:14:40.612Z,11.50
2019-02-20T12:17:06.590Z,11.40
2019-02-20T12:19:32.582Z,11.30
2019-02-20T12:21:58.559Z,11.10
2019-02-20T12:24:25.299Z,11.00
2019-02-20T12:26:51.298Z,11.00
2019-02-20T12:29:17.267Z,10.90
2019-02-20T12:31:43.223Z,10.90
2019-02-20T12:34:09.250Z,10.80
2019-02-20T12:36:35.223Z,10.90
2019-02-20T12:39:01.962Z,10.90
2019-02-20T12:41:30.250Z,11.00
2019-02-20T12:43:54.740Z,11.00
2019-02-20T12:46:20.719Z,11.10
2019-02-20T12:48:46.695Z,11.10
2019-02-20T12:51:12.716Z,11.00
2019-02-20T12:53:38.705Z,11.10
2019-02-20T12:56:09.951Z,11.10
2019-02-20T12:58:30.752Z,11.20
2019-02-20T13:00:57.486Z,11.30
2019-02-20T13:03:23.461Z,11.30
2019-02-20T13:05:49.449Z,11.20
2019-02-20T13:08:16.166Z,11.20
2019-02-20T13:10:42.158Z,11.20
2019-02-20T13:13:08.112Z,11.10
2019-02-20T13:15:34.095Z,11.00
2019-02-20T13:18:00.130Z,11.20
2019-02-20T13:20:26.160Z,11.10
2019-02-20T13:22:52.145Z,11.10
2019-02-20T13:25:20.878Z,11.10
2019-02-20T13:27:44.886Z,11.10
2019-02-20T13:30:10.839Z,11.00
2019-02-20T13:32:36.850Z,11.00
2019-02-20T13:35:02.827Z,11.20
2019-02-20T13:37:28.803Z,11.10
2019-02-20T13:39:54.782Z,11.20
2019-02-20T13:42:20.800Z,11.20
2019-02-20T13:44:46.766Z,11.20
2019-02-20T13:47:12.766Z,11.30
2019-02-20T13:49:39.493Z,11.50
2019-02-20T13:52:05.509Z,11.50
2019-02-20T13:54:31.507Z,11.40
2019-02-20T13:57:01.858Z,11.40
2019-02-20T13:59:23.512Z,11.30
2019-02-20T14:01:49.573Z,11.30
2019-02-20T14:04:15.553Z,11.30
2019-02-20T14:06:41.550Z,11.20
2019-02-20T14:09:07.579Z,11.20
2019-02-20T14:11:34.313Z,11.10
2019-02-20T14:14:00.310Z,11.00
2019-02-20T14:16:26.294Z,11.10
2019-02-20T14:18:52.292Z,11.20
2019-02-20T14:21:18.254Z,11.20
2019-02-20T14:23:44.277Z,11.30
2019-02-20T14:26:10.255Z,11.30
2019-02-20T14:28:36.267Z,11.30
2019-02-20T14:31:02.257Z,11.30
2019-02-20T14:33:28.265Z,11.20
2019-02-20T14:35:54.237Z,11.20
2019-02-20T14:38:20.241Z,11.10
2019-02-20T14:40:46.217Z,11.00
2019-02-20T14:43:12.963Z,10.90
2019-02-20T14:45:38.969Z,10.90
2019-02-20T14:48:04.974Z,10.80
2019-02-20T14:50:30.985Z,10.80
2019-02-20T14:52:56.986Z,10.80
2019-02-20T14:55:23.021Z,10.80
2019-02-20T14:57:50.935Z,10.80
2019-02-20T15:00:15.051Z,10.70
2019-02-20T15:02:41.044Z,10.80
2019-02-20T15:05:07.073Z,10.80
2019-02-20T15:07:33.874Z,10.80
2019-02-20T15:09:59.186Z,10.70
2019-02-20T15:12:25.160Z,10.70
2019-02-20T15:14:51.142Z,10.70
2019-02-20T15:17:17.136Z,10.70
2019-02-20T15:19:43.158Z,10.70
2019-02-20T15:22:09.141Z,10.60
2019-02-20T15:24:35.153Z,10.60
2019-02-20T15:27:07.886Z,10.60
2019-02-20T15:29:33.905Z,10.60
2019-02-20T15:31:59.908Z,10.60
2019-02-20T15:34:25.890Z,10.60
2019-02-20T15:36:51.897Z,10.60
2019-02-20T15:39:17.895Z,10.50
2019-02-20T15:41:43.923Z,10.50
2019-02-20T15:44:09.890Z,10.50
2019-02-20T15:46:35.931Z,10.50
2019-02-20T15:49:01.916Z,10.50
2019-02-20T15:51:27.919Z,10.50
2019-02-20T15:53:53.891Z,10.50
2019-02-20T15:56:20.654Z,10.50
2019-02-20T15:58:46.676Z,10.50
2019-02-20T16:01:12.702Z,10.50
2019-02-20T16:03:38.680Z,10.50
2019-02-20T16:06:04.689Z,10.50
2019-02-20T16:08:30.686Z,10.40
2019-02-20T16:10:56.737Z,10.40
2019-02-20T16:13:22.709Z,10.40
2019-02-20T16:15:49.418Z,10.30
2019-02-20T16:18:15.424Z,10.30
2019-02-20T16:20:41.394Z,10.40
2019-02-20T16:23:08.144Z,10.30
2019-02-20T16:25:34.138Z,10.30
2019-02-20T16:28:00.888Z,10.20
2019-02-20T16:30:27.612Z,10.20
2019-02-20T16:32:53.651Z,10.20
2019-02-20T16:35:20.359Z,10.20
2019-02-20T16:37:46.388Z,10.20
2019-02-20T16:40:12.376Z,10.20
2019-02-20T16:42:39.315Z,10.10
2019-02-20T16:45:04.387Z,10.10
2019-02-20T16:47:31.144Z,10.10
2019-02-20T16:49:57.127Z,10.10
2019-02-20T16:52:23.134Z,10.10
2019-02-20T16:54:49.891Z,10.00
2019-02-20T16:57:16.881Z,10.00
2019-02-20T16:59:42.894Z,10.00
2019-02-20T17:02:09.609Z,10.00
2019-02-20T17:04:35.640Z,9.90
2019-02-20T17:07:02.371Z,9.90
2019-02-20T17:09:28.390Z,9.90
2019-02-20T17:11:54.506Z,9.90
2019-02-20T17:14:20.569Z,9.90
2019-02-20T17:16:46.545Z,9.80
2019-02-20T17:19:12.535Z,9.80
2019-02-20T17:21:38.539Z,9.70
2019-02-20T17:24:04.698Z,9.70
2019-02-20T17:26:30.598Z,9.70
2019-02-20T17:28:56.607Z,9.70
2019-02-20T17:31:23.326Z,9.60
2019-02-20T17:33:49.340Z,9.60
2019-02-20T17:36:15.390Z,9.60
2019-02-20T17:38:42.118Z,9.70
2019-02-20T17:41:08.879Z,9.60
2019-02-20T17:43:34.866Z,9.60
2019-02-20T17:46:00.878Z,9.70
2019-02-20T17:48:26.862Z,9.70
2019-02-20T17:50:52.869Z,9.70
2019-02-20T17:53:18.880Z,9.60
2019-02-20T17:55:44.950Z,9.60
2019-02-20T17:58:15.290Z,9.60
2019-02-20T18:00:37.046Z,9.60
2019-02-20T18:03:03.002Z,9.60
2019-02-20T18:05:28.994Z,9.60
2019-02-20T18:07:54.978Z,9.50
2019-02-20T18:10:21.006Z,9.50
2019-02-20T18:12:46.997Z,9.50
2019-02-20T18:15:13.015Z,9.50
2019-02-20T18:17:39.031Z,9.40
2019-02-20T18:20:05.733Z,9.40
2019-02-20T18:22:31.726Z,9.40
2019-02-20T18:24:57.692Z,9.40
2019-02-20T18:27:23.680Z,9.30
2019-02-20T18:29:49.695Z,9.40
2019-02-20T18:32:15.698Z,9.40
2019-02-20T18:34:41.671Z,9.40
2019-02-20T18:37:07.675Z,9.40
2019-02-20T18:39:33.636Z,9.40
2019-02-20T18:41:59.639Z,9.40
2019-02-20T18:44:25.652Z,9.50
2019-02-20T18:46:51.639Z,9.40
2019-02-20T18:49:17.633Z,9.50
2019-02-20T18:51:43.632Z,9.50
2019-02-20T18:54:09.628Z,9.50
2019-02-20T18:56:35.627Z,9.50
2019-02-20T18:59:02.384Z,9.60
2019-02-20T19:01:28.439Z,9.60
2019-02-20T19:03:56.634Z,9.60
2019-02-20T19:06:21.236Z,9.60
2019-02-20T19:08:47.988Z,9.70
2019-02-20T19:11:13.989Z,9.60
2019-02-20T19:13:40.000Z,9.60
2019-02-20T19:16:05.963Z,9.60
2019-02-20T19:18:32.816Z,9.60
2019-02-20T19:20:58.839Z,9.60
2019-02-20T19:23:24.866Z,9.60
2019-02-20T19:25:53.132Z,9.60
2019-02-20T19:28:16.906Z,9.60
2019-02-20T19:30:42.925Z,9.60
2019-02-20T19:33:09.686Z,9.50
2019-02-20T19:35:35.667Z,9.50
2019-02-20T19:38:06.533Z,9.60
2019-02-20T19:40:28.508Z,9.50
2019-02-20T19:42:54.504Z,9.60
2019-02-20T19:45:20.512Z,9.50
2019-02-20T19:47:46.533Z,9.50
2019-02-20T19:50:13.305Z,9.50
2019-02-20T19:52:39.306Z,9.50
2019-02-20T19:55:05.331Z,9.50
2019-02-20T19:57:31.313Z,9.50
2019-02-20T19:59:57.466Z,9.50
2019-02-20T20:02:28.303Z,9.40
2019-02-20T20:04:51.062Z,9.40
2019-02-20T20:07:17.104Z,9.40
2019-02-20T20:09:43.080Z,9.40
2019-02-20T20:12:09.886Z,9.40
2019-02-20T20:14:35.871Z,9.40
2019-02-20T20:17:03.463Z,9.40
2019-02-20T20:19:29.467Z,9.40
2019-02-20T20:21:57.763Z,9.40
2019-02-20T20:24:24.382Z,9.40
2019-02-20T20:26:51.732Z,9.40
2019-02-20T20:29:17.789Z,9.30
2019-02-20T20:31:43.791Z,9.30
2019-02-20T20:34:09.788Z,9.30
2019-02-20T20:36:36.497Z,9.30
2019-02-20T20:39:02.513Z,9.30
2019-02-20T20:41:28.479Z,9.30
2019-02-20T20:43:54.484Z,9.30
2019-02-20T20:46:22.004Z,9.30
2019-02-20T20:48:48.812Z,9.20
2019-02-20T20:51:14.791Z,9.20
2019-02-20T20:53:40.760Z,9.20
2019-02-20T20:56:06.856Z,9.20
2019-02-20T20:58:32.820Z,9.20
2019-02-20T21:00:58.882Z,9.20
2019-02-20T21:03:24.868Z,9.20
2019-02-20T21:05:50.895Z,9.20
2019-02-20T21:08:16.887Z,9.10
2019-02-20T21:10:46.432Z,9.10
2019-02-20T21:13:09.877Z,9.10
2019-02-20T21:15:35.842Z,9.10
2019-02-20T21:18:01.850Z,9.00
2019-02-20T21:20:27.854Z,9.00
2019-02-20T21:22:53.905Z,8.90
2019-02-20T21:25:20.701Z,8.80
2019-02-20T21:27:47.523Z,8.80
2019-02-20T21:30:13.710Z,8.80
2019-02-20T21:32:39.641Z,8.70
2019-02-20T21:35:05.633Z,8.70
2019-02-20T21:37:31.633Z,8.80
2019-02-20T21:39:57.626Z,8.70
2019-02-20T21:42:23.605Z,8.70
2019-02-20T21:44:49.607Z,8.70
2019-02-20T21:47:15.929Z,8.70
2019-02-20T21:49:42.665Z,8.70
2019-02-20T21:52:09.603Z,8.80
2019-02-20T21:54:36.331Z,8.80
2019-02-20T21:57:03.216Z,8.80
2019-02-20T21:59:38.977Z,8.80
2019-02-20T22:01:56.095Z,8.70
2019-02-20T22:04:22.530Z,8.80
2019-02-20T22:06:49.184Z,8.70
2019-02-20T22:09:15.299Z,8.70
2019-02-20T22:11:41.649Z,8.70
2019-02-20T22:14:07.607Z,8.60
2019-02-20T22:16:33.577Z,8.60
2019-02-20T22:18:59.552Z,8.60
2019-02-20T22:21:26.309Z,8.50
2019-02-20T22:23:52.304Z,8.50
2019-02-20T22:26:19.064Z,8.50
2019-02-20T22:28:46.067Z,8.50
2019-02-20T22:31:12.915Z,8.40
2019-02-20T22:33:39.100Z,8.40
2019-02-20T22:36:05.206Z,8.40
2019-02-20T22:38:31.954Z,8.40
2019-02-20T22:40:58.780Z,8.40
2019-02-20T22:43:25.516Z,8.40
2019-02-20T22:45:52.228Z,8.40
2019-02-20T22:48:18.355Z,8.40
2019-02-20T22:50:44.339Z,8.40
2019-02-20T22:53:10.355Z,8.40
2019-02-20T22:55:36.316Z,8.50
2019-02-20T22:58:02.336Z,8.50
2019-02-20T23:00:34.479Z,8.50
2019-02-20T23:02:54.347Z,8.50
2019-02-20T23:05:20.344Z,8.40
2019-02-20T23:07:47.070Z,8.40
2019-02-20T23:10:13.071Z,8.40
2019-02-20T23:12:39.063Z,8.40
2019-02-20T23:15:05.061Z,8.40
2019-02-20T23:17:31.774Z,8.30
2019-02-20T23:19:57.735Z,8.30
2019-02-20T23:22:23.855Z,8.30
2019-02-20T23:24:50.555Z,8.40
2019-02-20T23:27:16.552Z,8.40
2019-02-20T23:29:42.532Z,8.40
2019-02-20T23:32:08.963Z,8.50
2019-02-20T23:34:34.975Z,8.50
2019-02-20T23:37:01.424Z,8.60
2019-02-20T23:39:28.129Z,8.60
2019-02-20T23:41:54.092Z,8.60
2019-02-20T23:44:20.052Z,8.60
2019-02-20T23:46:46.030Z,8.60
2019-02-20T23:49:12.910Z,8.60
2019-02-20T23:51:38.909Z,8.60
2019-02-20T23:54:05.033Z,8.60
2019-02-20T23:56:31.731Z,8.50
2019-02-20T23:58:57.713Z,8.50
